sensor_id;sensor_type;location;lat;lon;timestamp;temperature;humidity
16829;DHT22;8531;48.078;11.968;2023-11-19T00:01:57;4.40;99.90
16829;DHT22;8531;48.078;11.968;2023-11-19T00:04:22;4.50;99.90
16829;DHT22;8531;48.078;11.968;2023-11-19T00:06:48;4.50;99.90
16829;DHT22;8531;48.078;11.968;2023-11-19T00:09:14;4.50;99.90
16829;DHT22;8531;48.078;11.968;2023-11-19T00:11:42;4.50;99.90
16829;DHT22;8531;48.078;11.968;2023-11-19T00:14:07;4.60;99.90
16829;DHT22;8531;48.078;11.968;2023-11-19T00:16:34;4.60;99.90
16829;DHT22;8531;48.078;11.968;2023-11-19T00:19:00;4.70;99.90
16829;DHT22;8531;48.078;11.968;2023-11-19T00:21:26;4.70;99.90
16829;DHT22;8531;48.078;11.968;2023-11-19T00:23:54;4.70;99.90
16829;DHT22;8531;48.078;11.968;2023-11-19T00:26:20;4.70;99.90
16829;DHT22;8531;48.078;11.968;2023-11-19T00:28:45;4.80;99.90
16829;DHT22;8531;48.078;11.968;2023-11-19T00:31:13;4.80;99.90
16829;DHT22;8531;48.078;11.968;2023-11-19T00:33:39;4.80;99.90
16829;DHT22;8531;48.078;11.968;2023-11-19T00:36:05;4.90;99.90
16829;DHT22;8531;48.078;11.968;2023-11-19T00:38:31;4.80;99.90
16829;DHT22;8531;48.078;11.968;2023-11-19T00:40:57;4.90;99.90
16829;DHT22;8531;48.078;11.968;2023-11-19T00:43:22;4.90;99.90
16829;DHT22;8531;48.078;11.968;2023-11-19T00:45:48;4.90;99.90
16829;DHT22;8531;48.078;11.968;2023-11-19T00:48:16;4.90;99.90
16829;DHT22;8531;48.078;11.968;2023-11-19T00:50:43;4.80;99.90
16829;DHT22;8531;48.078;11.968;2023-11-19T00:53:10;4.80;99.90
16829;DHT22;8531;48.078;11.968;2023-11-19T00:55:35;4.80;99.90
16829;DHT22;8531;48.078;11.968;2023-11-19T00:58:01;4.90;99.90
16829;DHT22;8531;48.078;11.968;2023-11-19T01:00:26;4.90;99.90
16829;DHT22;8531;48.078;11.968;2023-11-19T01:02:53;4.90;99.90
16829;DHT22;8531;48.078;11.968;2023-11-19T01:05:19;4.90;99.90
16829;DHT22;8531;48.078;11.968;2023-11-19T01:07:47;4.80;99.90
16829;DHT22;8531;48.078;11.968;2023-11-19T01:10:13;4.80;99.90
16829;DHT22;8531;48.078;11.968;2023-11-19T01:12:41;4.80;99.90
16829;DHT22;8531;48.078;11.968;2023-11-19T01:15:07;4.90;99.90
16829;DHT22;8531;48.078;11.968;2023-11-19T01:17:33;4.90;99.90
16829;DHT22;8531;48.078;11.968;2023-11-19T01:19:59;4.90;99.90
16829;DHT22;8531;48.078;11.968;2023-11-19T01:22:24;4.90;99.90
16829;DHT22;8531;48.078;11.968;2023-11-19T01:24:50;4.90;99.90
16829;DHT22;8531;48.078;11.968;2023-11-19T01:27:17;5.00;99.90
16829;DHT22;8531;48.078;11.968;2023-11-19T01:29:43;5.00;99.90
16829;DHT22;8531;48.078;11.968;2023-11-19T01:32:08;5.10;99.90
16829;DHT22;8531;48.078;11.968;2023-11-19T01:34:34;5.10;99.90
16829;DHT22;8531;48.078;11.968;2023-11-19T01:37:01;5.10;99.90
16829;DHT22;8531;48.078;11.968;2023-11-19T01:39:27;5.00;99.90
16829;DHT22;8531;48.078;11.968;2023-11-19T01:41:52;5.00;99.90
16829;DHT22;8531;48.078;11.968;2023-11-19T01:44:20;5.10;99.90
16829;DHT22;8531;48.078;11.968;2023-11-19T01:46:46;5.10;99.90
16829;DHT22;8531;48.078;11.968;2023-11-19T01:49:15;5.10;99.90
16829;DHT22;8531;48.078;11.968;2023-11-19T01:51:43;5.00;99.90
16829;DHT22;8531;48.078;11.968;2023-11-19T01:54:09;5.00;99.90
16829;DHT22;8531;48.078;11.968;2023-11-19T01:56:37;5.00;99.90
16829;DHT22;8531;48.078;11.968;2023-11-19T01:59:06;5.00;99.90
16829;DHT22;8531;48.078;11.968;2023-11-19T02:01:33;5.00;99.90
16829;DHT22;8531;48.078;11.968;2023-11-19T02:04:03;5.00;99.90
16829;DHT22;8531;48.078;11.968;2023-11-19T02:06:30;5.10;99.90
16829;DHT22;8531;48.078;11.968;2023-11-19T02:08:57;5.10;99.90
16829;DHT22;8531;48.078;11.968;2023-11-19T02:11:23;5.10;99.90
16829;DHT22;8531;48.078;11.968;2023-11-19T02:13:49;5.20;99.90
16829;DHT22;8531;48.078;11.968;2023-11-19T02:16:15;5.10;99.90
16829;DHT22;8531;48.078;11.968;2023-11-19T02:18:40;5.20;99.90
16829;DHT22;8531;48.078;11.968;2023-11-19T02:21:06;5.20;99.90
16829;DHT22;8531;48.078;11.968;2023-11-19T02:23:32;5.20;99.90
16829;DHT22;8531;48.078;11.968;2023-11-19T02:26:18;5.20;99.90
16829;DHT22;8531;48.078;11.968;2023-11-19T02:28:47;5.20;99.90
16829;DHT22;8531;48.078;11.968;2023-11-19T02:31:12;5.20;99.90
16829;DHT22;8531;48.078;11.968;2023-11-19T02:33:38;5.10;99.90
16829;DHT22;8531;48.078;11.968;2023-11-19T02:36:08;5.10;99.90
16829;DHT22;8531;48.078;11.968;2023-11-19T02:38:34;5.10;99.90
16829;DHT22;8531;48.078;11.968;2023-11-19T02:41:03;5.10;99.90
16829;DHT22;8531;48.078;11.968;2023-11-19T02:43:32;5.10;99.90
16829;DHT22;8531;48.078;11.968;2023-11-19T02:46:03;5.20;99.90
16829;DHT22;8531;48.078;11.968;2023-11-19T02:48:33;5.10;99.90
16829;DHT22;8531;48.078;11.968;2023-11-19T02:51:01;5.20;99.90
16829;DHT22;8531;48.078;11.968;2023-11-19T02:53:26;5.20;99.90
16829;DHT22;8531;48.078;11.968;2023-11-19T02:55:54;5.20;99.90
16829;DHT22;8531;48.078;11.968;2023-11-19T02:58:29;5.20;99.90
16829;DHT22;8531;48.078;11.968;2023-11-19T03:00:55;5.20;99.90
16829;DHT22;8531;48.078;11.968;2023-11-19T03:03:26;5.30;99.90
16829;DHT22;8531;48.078;11.968;2023-11-19T03:06:04;5.30;99.90
16829;DHT22;8531;48.078;11.968;2023-11-19T03:08:30;5.30;99.90
16829;DHT22;8531;48.078;11.968;2023-11-19T03:10:56;5.40;99.90
16829;DHT22;8531;48.078;11.968;2023-11-19T03:13:21;5.40;99.90
16829;DHT22;8531;48.078;11.968;2023-11-19T03:15:47;5.40;99.90
16829;DHT22;8531;48.078;11.968;2023-11-19T03:18:13;5.40;99.90
16829;DHT22;8531;48.078;11.968;2023-11-19T03:20:39;5.40;99.90
16829;DHT22;8531;48.078;11.968;2023-11-19T03:23:05;5.30;99.90
16829;DHT22;8531;48.078;11.968;2023-11-19T03:25:31;5.40;99.90
16829;DHT22;8531;48.078;11.968;2023-11-19T03:28:02;5.40;99.90
16829;DHT22;8531;48.078;11.968;2023-11-19T03:30:29;5.40;99.90
16829;DHT22;8531;48.078;11.968;2023-11-19T03:32:58;5.50;99.90
16829;DHT22;8531;48.078;11.968;2023-11-19T03:35:25;5.40;99.90
16829;DHT22;8531;48.078;11.968;2023-11-19T03:37:51;5.50;99.90
16829;DHT22;8531;48.078;11.968;2023-11-19T03:40:17;5.40;99.90
16829;DHT22;8531;48.078;11.968;2023-11-19T03:42:47;5.50;99.90
16829;DHT22;8531;48.078;11.968;2023-11-19T03:45:13;5.50;99.90
16829;DHT22;8531;48.078;11.968;2023-11-19T03:47:41;5.60;99.90
16829;DHT22;8531;48.078;11.968;2023-11-19T03:50:07;5.70;99.90
16829;DHT22;8531;48.078;11.968;2023-11-19T03:52:34;5.70;99.90
16829;DHT22;8531;48.078;11.968;2023-11-19T03:54:59;5.70;99.90
16829;DHT22;8531;48.078;11.968;2023-11-19T03:57:27;5.70;99.90
16829;DHT22;8531;48.078;11.968;2023-11-19T03:59:53;5.80;99.90
16829;DHT22;8531;48.078;11.968;2023-11-19T04:02:21;5.90;99.90
16829;DHT22;8531;48.078;11.968;2023-11-19T04:04:46;5.90;99.90
16829;DHT22;8531;48.078;11.968;2023-11-19T04:07:13;5.90;99.90
16829;DHT22;8531;48.078;11.968;2023-11-19T04:09:39;5.90;99.90
16829;DHT22;8531;48.078;11.968;2023-11-19T04:12:05;6.00;99.90
16829;DHT22;8531;48.078;11.968;2023-11-19T04:14:31;6.00;99.90
16829;DHT22;8531;48.078;11.968;2023-11-19T04:16:56;6.00;99.90
16829;DHT22;8531;48.078;11.968;2023-11-19T04:19:22;6.00;99.90
16829;DHT22;8531;48.078;11.968;2023-11-19T04:21:48;6.00;99.90
16829;DHT22;8531;48.078;11.968;2023-11-19T04:24:13;6.00;99.90
16829;DHT22;8531;48.078;11.968;2023-11-19T04:26:43;6.00;99.90
16829;DHT22;8531;48.078;11.968;2023-11-19T04:29:12;6.00;99.90
16829;DHT22;8531;48.078;11.968;2023-11-19T04:31:38;6.00;99.90
16829;DHT22;8531;48.078;11.968;2023-11-19T04:34:05;6.00;99.90
16829;DHT22;8531;48.078;11.968;2023-11-19T04:36:32;6.10;99.90
16829;DHT22;8531;48.078;11.968;2023-11-19T04:38:59;6.10;99.90
16829;DHT22;8531;48.078;11.968;2023-11-19T04:41:25;6.10;99.90
16829;DHT22;8531;48.078;11.968;2023-11-19T04:43:55;6.10;99.90
16829;DHT22;8531;48.078;11.968;2023-11-19T04:46:21;6.20;99.90
16829;DHT22;8531;48.078;11.968;2023-11-19T04:48:47;6.10;99.90
16829;DHT22;8531;48.078;11.968;2023-11-19T04:51:13;6.10;99.90
16829;DHT22;8531;48.078;11.968;2023-11-19T04:56:14;6.10;99.90
16829;DHT22;8531;48.078;11.968;2023-11-19T04:58:41;6.10;99.90
16829;DHT22;8531;48.078;11.968;2023-11-19T05:01:13;6.20;99.90
16829;DHT22;8531;48.078;11.968;2023-11-19T05:03:41;6.20;99.90
16829;DHT22;8531;48.078;11.968;2023-11-19T05:06:07;6.30;99.90
16829;DHT22;8531;48.078;11.968;2023-11-19T05:08:33;6.30;99.90
16829;DHT22;8531;48.078;11.968;2023-11-19T05:10:58;6.40;99.90
16829;DHT22;8531;48.078;11.968;2023-11-19T05:13:24;6.50;99.90
16829;DHT22;8531;48.078;11.968;2023-11-19T05:15:50;6.50;99.90
16829;DHT22;8531;48.078;11.968;2023-11-19T05:18:16;6.50;99.90
16829;DHT22;8531;48.078;11.968;2023-11-19T05:20:41;6.60;99.90
16829;DHT22;8531;48.078;11.968;2023-11-19T05:23:07;6.70;99.90
16829;DHT22;8531;48.078;11.968;2023-11-19T05:25:32;6.80;99.90
16829;DHT22;8531;48.078;11.968;2023-11-19T05:27:58;7.10;99.90
16829;DHT22;8531;48.078;11.968;2023-11-19T05:30:24;7.50;99.90
16829;DHT22;8531;48.078;11.968;2023-11-19T05:32:50;7.90;99.90
16829;DHT22;8531;48.078;11.968;2023-11-19T05:35:15;8.10;99.90
16829;DHT22;8531;48.078;11.968;2023-11-19T05:37:41;8.30;99.90
16829;DHT22;8531;48.078;11.968;2023-11-19T05:40:07;8.50;99.90
16829;DHT22;8531;48.078;11.968;2023-11-19T05:42:42;8.60;99.90
16829;DHT22;8531;48.078;11.968;2023-11-19T05:45:10;8.70;99.90
16829;DHT22;8531;48.078;11.968;2023-11-19T05:47:37;8.80;99.90
16829;DHT22;8531;48.078;11.968;2023-11-19T05:50:02;8.90;99.90
16829;DHT22;8531;48.078;11.968;2023-11-19T05:52:29;8.90;99.90
16829;DHT22;8531;48.078;11.968;2023-11-19T05:55:02;9.00;99.90
16829;DHT22;8531;48.078;11.968;2023-11-19T05:57:31;9.10;99.90
16829;DHT22;8531;48.078;11.968;2023-11-19T06:00:00;9.20;99.90
16829;DHT22;8531;48.078;11.968;2023-11-19T06:02:25;9.20;99.90
16829;DHT22;8531;48.078;11.968;2023-11-19T06:04:53;9.30;99.90
16829;DHT22;8531;48.078;11.968;2023-11-19T06:07:18;9.40;99.90
16829;DHT22;8531;48.078;11.968;2023-11-19T06:09:45;9.40;99.90
16829;DHT22;8531;48.078;11.968;2023-11-19T06:12:10;9.40;99.90
16829;DHT22;8531;48.078;11.968;2023-11-19T06:14:36;9.50;99.90
16829;DHT22;8531;48.078;11.968;2023-11-19T06:17:02;9.60;99.90
16829;DHT22;8531;48.078;11.968;2023-11-19T06:19:30;9.60;99.90
16829;DHT22;8531;48.078;11.968;2023-11-19T06:21:56;9.70;99.90
16829;DHT22;8531;48.078;11.968;2023-11-19T06:24:21;9.80;99.90
16829;DHT22;8531;48.078;11.968;2023-11-19T06:26:47;9.80;99.90
16829;DHT22;8531;48.078;11.968;2023-11-19T06:29:13;9.80;99.90
16829;DHT22;8531;48.078;11.968;2023-11-19T06:31:44;9.80;99.90
16829;DHT22;8531;48.078;11.968;2023-11-19T06:34:10;9.80;99.90
16829;DHT22;8531;48.078;11.968;2023-11-19T06:36:36;9.80;99.90
16829;DHT22;8531;48.078;11.968;2023-11-19T06:39:01;9.80;99.90
16829;DHT22;8531;48.078;11.968;2023-11-19T06:41:27;9.90;99.90
16829;DHT22;8531;48.078;11.968;2023-11-19T06:43:54;9.90;99.90
16829;DHT22;8531;48.078;11.968;2023-11-19T06:46:20;9.90;99.90
16829;DHT22;8531;48.078;11.968;2023-11-19T06:48:46;10.00;99.90
16829;DHT22;8531;48.078;11.968;2023-11-19T06:51:12;10.00;99.90
16829;DHT22;8531;48.078;11.968;2023-11-19T06:53:38;10.00;99.90
16829;DHT22;8531;48.078;11.968;2023-11-19T06:56:18;10.00;99.90
16829;DHT22;8531;48.078;11.968;2023-11-19T06:58:44;10.10;99.90
16829;DHT22;8531;48.078;11.968;2023-11-19T07:01:09;10.10;99.90
16829;DHT22;8531;48.078;11.968;2023-11-19T07:03:35;10.10;99.90
16829;DHT22;8531;48.078;11.968;2023-11-19T07:06:01;10.10;99.90
16829;DHT22;8531;48.078;11.968;2023-11-19T07:08:26;10.10;99.90
16829;DHT22;8531;48.078;11.968;2023-11-19T07:10:52;10.10;99.90
16829;DHT22;8531;48.078;11.968;2023-11-19T07:13:18;10.20;99.90
16829;DHT22;8531;48.078;11.968;2023-11-19T07:15:44;10.10;99.90
16829;DHT22;8531;48.078;11.968;2023-11-19T07:18:10;10.20;99.90
16829;DHT22;8531;48.078;11.968;2023-11-19T07:20:37;10.30;99.90
16829;DHT22;8531;48.078;11.968;2023-11-19T07:23:06;10.20;99.90
16829;DHT22;8531;48.078;11.968;2023-11-19T07:25:32;10.20;99.90
16829;DHT22;8531;48.078;11.968;2023-11-19T07:27:57;10.30;99.90
16829;DHT22;8531;48.078;11.968;2023-11-19T07:30:23;10.30;99.90
16829;DHT22;8531;48.078;11.968;2023-11-19T07:32:49;10.30;99.90
16829;DHT22;8531;48.078;11.968;2023-11-19T07:35:14;10.30;99.90
16829;DHT22;8531;48.078;11.968;2023-11-19T07:37:44;10.30;99.90
16829;DHT22;8531;48.078;11.968;2023-11-19T07:40:11;10.40;99.90
16829;DHT22;8531;48.078;11.968;2023-11-19T07:42:37;10.40;99.90
16829;DHT22;8531;48.078;11.968;2023-11-19T07:45:03;10.40;99.90
16829;DHT22;8531;48.078;11.968;2023-11-19T07:47:31;10.40;99.90
16829;DHT22;8531;48.078;11.968;2023-11-19T07:49:56;10.50;99.90
16829;DHT22;8531;48.078;11.968;2023-11-19T07:52:22;10.50;99.90
16829;DHT22;8531;48.078;11.968;2023-11-19T07:54:48;10.50;99.90
16829;DHT22;8531;48.078;11.968;2023-11-19T07:57:13;10.50;99.90
16829;DHT22;8531;48.078;11.968;2023-11-19T07:59:39;10.50;99.90
16829;DHT22;8531;48.078;11.968;2023-11-19T08:02:05;10.50;99.90
16829;DHT22;8531;48.078;11.968;2023-11-19T08:04:31;10.60;99.90
16829;DHT22;8531;48.078;11.968;2023-11-19T08:06:56;10.60;99.90
16829;DHT22;8531;48.078;11.968;2023-11-19T08:09:22;10.70;99.90
16829;DHT22;8531;48.078;11.968;2023-11-19T08:11:48;10.70;99.90
16829;DHT22;8531;48.078;11.968;2023-11-19T08:14:15;10.60;99.90
16829;DHT22;8531;48.078;11.968;2023-11-19T08:16:40;10.70;99.90
16829;DHT22;8531;48.078;11.968;2023-11-19T08:19:06;10.70;99.90
16829;DHT22;8531;48.078;11.968;2023-11-19T08:21:33;10.70;99.90
16829;DHT22;8531;48.078;11.968;2023-11-19T08:23:59;10.70;99.90
16829;DHT22;8531;48.078;11.968;2023-11-19T08:26:25;10.70;99.90
16829;DHT22;8531;48.078;11.968;2023-11-19T08:28:50;10.70;99.90
16829;DHT22;8531;48.078;11.968;2023-11-19T08:31:17;10.80;99.90
16829;DHT22;8531;48.078;11.968;2023-11-19T08:33:43;10.80;99.90
16829;DHT22;8531;48.078;11.968;2023-11-19T08:36:09;10.80;99.90
16829;DHT22;8531;48.078;11.968;2023-11-19T08:38:40;10.80;99.90
16829;DHT22;8531;48.078;11.968;2023-11-19T08:41:06;10.80;99.90
16829;DHT22;8531;48.078;11.968;2023-11-19T08:43:31;10.80;99.90
16829;DHT22;8531;48.078;11.968;2023-11-19T08:45:57;10.90;99.90
16829;DHT22;8531;48.078;11.968;2023-11-19T08:48:23;10.90;99.90
16829;DHT22;8531;48.078;11.968;2023-11-19T08:50:48;10.90;99.90
16829;DHT22;8531;48.078;11.968;2023-11-19T08:53:14;10.90;99.90
16829;DHT22;8531;48.078;11.968;2023-11-19T08:55:39;10.90;99.90
16829;DHT22;8531;48.078;11.968;2023-11-19T08:58:05;10.90;99.90
16829;DHT22;8531;48.078;11.968;2023-11-19T09:00:31;10.90;99.90
16829;DHT22;8531;48.078;11.968;2023-11-19T09:02:58;10.90;99.90
16829;DHT22;8531;48.078;11.968;2023-11-19T09:05:23;10.90;99.90
16829;DHT22;8531;48.078;11.968;2023-11-19T09:07:49;11.00;99.90
16829;DHT22;8531;48.078;11.968;2023-11-19T09:10:15;11.00;99.90
16829;DHT22;8531;48.078;11.968;2023-11-19T09:12:41;11.00;99.90
16829;DHT22;8531;48.078;11.968;2023-11-19T09:15:07;11.00;99.90
16829;DHT22;8531;48.078;11.968;2023-11-19T09:17:33;11.10;99.90
16829;DHT22;8531;48.078;11.968;2023-11-19T09:19:58;11.10;99.90
16829;DHT22;8531;48.078;11.968;2023-11-19T09:22:24;11.20;99.90
16829;DHT22;8531;48.078;11.968;2023-11-19T09:24:50;11.30;99.90
16829;DHT22;8531;48.078;11.968;2023-11-19T09:27:15;11.20;99.90
16829;DHT22;8531;48.078;11.968;2023-11-19T09:29:41;11.30;99.90
16829;DHT22;8531;48.078;11.968;2023-11-19T09:32:08;11.30;99.90
16829;DHT22;8531;48.078;11.968;2023-11-19T09:34:34;11.30;99.90
16829;DHT22;8531;48.078;11.968;2023-11-19T09:36:59;11.30;99.90
16829;DHT22;8531;48.078;11.968;2023-11-19T09:39:25;11.40;99.90
16829;DHT22;8531;48.078;11.968;2023-11-19T09:41:51;11.40;99.90
16829;DHT22;8531;48.078;11.968;2023-11-19T09:44:17;11.40;99.90
16829;DHT22;8531;48.078;11.968;2023-11-19T09:46:44;11.40;99.90
16829;DHT22;8531;48.078;11.968;2023-11-19T09:49:11;11.40;99.90
16829;DHT22;8531;48.078;11.968;2023-11-19T09:51:38;11.40;99.90
16829;DHT22;8531;48.078;11.968;2023-11-19T09:54:04;11.50;99.90
16829;DHT22;8531;48.078;11.968;2023-11-19T09:56:30;11.50;99.90
16829;DHT22;8531;48.078;11.968;2023-11-19T09:58:56;11.50;99.90
16829;DHT22;8531;48.078;11.968;2023-11-19T10:01:22;11.50;99.90
16829;DHT22;8531;48.078;11.968;2023-11-19T10:03:48;11.50;99.90
16829;DHT22;8531;48.078;11.968;2023-11-19T10:06:15;11.60;99.90
16829;DHT22;8531;48.078;11.968;2023-11-19T10:08:41;11.50;99.90
16829;DHT22;8531;48.078;11.968;2023-11-19T10:11:07;11.60;99.90
16829;DHT22;8531;48.078;11.968;2023-11-19T10:13:36;11.60;99.90
16829;DHT22;8531;48.078;11.968;2023-11-19T10:16:11;11.60;99.90
16829;DHT22;8531;48.078;11.968;2023-11-19T10:18:37;11.70;99.90
16829;DHT22;8531;48.078;11.968;2023-11-19T10:21:06;11.80;99.90
16829;DHT22;8531;48.078;11.968;2023-11-19T10:26:17;11.90;99.90
16829;DHT22;8531;48.078;11.968;2023-11-19T10:28:44;11.90;99.90
16829;DHT22;8531;48.078;11.968;2023-11-19T10:31:21;12.00;99.90
16829;DHT22;8531;48.078;11.968;2023-11-19T10:33:51;12.00;99.90
16829;DHT22;8531;48.078;11.968;2023-11-19T10:36:17;12.10;99.90
16829;DHT22;8531;48.078;11.968;2023-11-19T10:41:38;12.10;99.90
16829;DHT22;8531;48.078;11.968;2023-11-19T10:44:03;12.10;99.90
16829;DHT22;8531;48.078;11.968;2023-11-19T10:46:38;12.10;99.90
16829;DHT22;8531;48.078;11.968;2023-11-19T10:49:05;12.10;99.90
16829;DHT22;8531;48.078;11.968;2023-11-19T10:51:32;12.20;99.90
16829;DHT22;8531;48.078;11.968;2023-11-19T10:54:04;12.20;99.90
16829;DHT22;8531;48.078;11.968;2023-11-19T10:56:34;12.30;99.90
16829;DHT22;8531;48.078;11.968;2023-11-19T10:59:00;12.40;99.90
16829;DHT22;8531;48.078;11.968;2023-11-19T11:01:43;12.40;99.90
16829;DHT22;8531;48.078;11.968;2023-11-19T11:04:14;12.40;99.90
16829;DHT22;8531;48.078;11.968;2023-11-19T11:06:43;12.50;99.90
16829;DHT22;8531;48.078;11.968;2023-11-19T11:09:09;12.60;99.90
16829;DHT22;8531;48.078;11.968;2023-11-19T11:11:40;12.70;99.90
16829;DHT22;8531;48.078;11.968;2023-11-19T11:14:11;12.80;99.90
16829;DHT22;8531;48.078;11.968;2023-11-19T11:16:38;13.00;99.90
16829;DHT22;8531;48.078;11.968;2023-11-19T11:19:06;13.10;99.90
16829;DHT22;8531;48.078;11.968;2023-11-19T11:21:32;13.00;99.90
16829;DHT22;8531;48.078;11.968;2023-11-19T11:37:49;12.90;99.90
16829;DHT22;8531;48.078;11.968;2023-11-19T11:40:15;12.90;99.90
16829;DHT22;8531;48.078;11.968;2023-11-19T11:42:42;12.90;99.90
16829;DHT22;8531;48.078;11.968;2023-11-19T11:45:12;12.90;99.90
16829;DHT22;8531;48.078;11.968;2023-11-19T11:50:15;13.00;99.90
16829;DHT22;8531;48.078;11.968;2023-11-19T11:58:22;13.10;99.90
16829;DHT22;8531;48.078;11.968;2023-11-19T12:00:51;13.10;99.90
16829;DHT22;8531;48.078;11.968;2023-11-19T12:03:20;13.20;99.90
16829;DHT22;8531;48.078;11.968;2023-11-19T12:05:48;13.20;99.90
16829;DHT22;8531;48.078;11.968;2023-11-19T12:08:15;13.30;99.90
16829;DHT22;8531;48.078;11.968;2023-11-19T12:10:47;13.40;99.90
16829;DHT22;8531;48.078;11.968;2023-11-19T12:13:15;13.40;99.90
16829;DHT22;8531;48.078;11.968;2023-11-19T12:18:28;13.50;99.90
16829;DHT22;8531;48.078;11.968;2023-11-19T12:20:54;13.50;99.90
16829;DHT22;8531;48.078;11.968;2023-11-19T12:23:20;13.60;99.90
16829;DHT22;8531;48.078;11.968;2023-11-19T12:25:46;13.70;99.90
16829;DHT22;8531;48.078;11.968;2023-11-19T12:28:12;13.70;99.90
16829;DHT22;8531;48.078;11.968;2023-11-19T12:30:39;13.70;99.90
16829;DHT22;8531;48.078;11.968;2023-11-19T12:33:08;13.70;99.90
16829;DHT22;8531;48.078;11.968;2023-11-19T12:35:42;13.70;99.90
16829;DHT22;8531;48.078;11.968;2023-11-19T12:38:18;13.70;99.90
16829;DHT22;8531;48.078;11.968;2023-11-19T12:40:43;13.60;99.90
16829;DHT22;8531;48.078;11.968;2023-11-19T12:43:09;13.60;99.90
16829;DHT22;8531;48.078;11.968;2023-11-19T12:45:36;13.60;99.90
16829;DHT22;8531;48.078;11.968;2023-11-19T12:48:08;13.60;99.90
16829;DHT22;8531;48.078;11.968;2023-11-19T12:53:17;13.50;99.90
16829;DHT22;8531;48.078;11.968;2023-11-19T12:55:43;13.40;99.90
16829;DHT22;8531;48.078;11.968;2023-11-19T12:58:09;13.40;99.90
16829;DHT22;8531;48.078;11.968;2023-11-19T13:00:35;13.40;99.90
16829;DHT22;8531;48.078;11.968;2023-11-19T13:03:00;13.40;99.90
16829;DHT22;8531;48.078;11.968;2023-11-19T13:08:07;13.40;99.90
16829;DHT22;8531;48.078;11.968;2023-11-19T13:10:34;13.40;99.90
16829;DHT22;8531;48.078;11.968;2023-11-19T13:13:19;13.30;99.90
16829;DHT22;8531;48.078;11.968;2023-11-19T13:15:45;13.30;99.90
16829;DHT22;8531;48.078;11.968;2023-11-19T13:18:11;13.30;99.90
16829;DHT22;8531;48.078;11.968;2023-11-19T13:20:37;13.30;99.90
16829;DHT22;8531;48.078;11.968;2023-11-19T13:23:05;13.20;99.90
16829;DHT22;8531;48.078;11.968;2023-11-19T13:25:31;13.30;99.90
16829;DHT22;8531;48.078;11.968;2023-11-19T13:27:58;13.20;99.90
16829;DHT22;8531;48.078;11.968;2023-11-19T13:30:24;13.20;99.90
16829;DHT22;8531;48.078;11.968;2023-11-19T13:32:53;13.30;99.90
16829;DHT22;8531;48.078;11.968;2023-11-19T13:35:21;13.30;99.90
16829;DHT22;8531;48.078;11.968;2023-11-19T13:37:48;13.20;99.90
16829;DHT22;8531;48.078;11.968;2023-11-19T13:40:14;13.20;99.90
16829;DHT22;8531;48.078;11.968;2023-11-19T13:42:44;13.20;99.90
16829;DHT22;8531;48.078;11.968;2023-11-19T13:45:11;13.20;99.90
16829;DHT22;8531;48.078;11.968;2023-11-19T13:47:42;13.10;99.90
16829;DHT22;8531;48.078;11.968;2023-11-19T13:50:09;13.20;99.90
16829;DHT22;8531;48.078;11.968;2023-11-19T13:52:39;13.20;99.90
16829;DHT22;8531;48.078;11.968;2023-11-19T13:55:06;13.10;99.90
16829;DHT22;8531;48.078;11.968;2023-11-19T13:57:32;13.20;99.90
16829;DHT22;8531;48.078;11.968;2023-11-19T14:00:00;13.20;99.90
16829;DHT22;8531;48.078;11.968;2023-11-19T14:02:26;13.20;99.90
16829;DHT22;8531;48.078;11.968;2023-11-19T14:04:51;13.20;99.90
16829;DHT22;8531;48.078;11.968;2023-11-19T14:07:17;13.10;99.90
16829;DHT22;8531;48.078;11.968;2023-11-19T14:09:43;13.10;99.90
16829;DHT22;8531;48.078;11.968;2023-11-19T14:12:09;13.10;99.90
16829;DHT22;8531;48.078;11.968;2023-11-19T14:14:35;13.00;99.90
16829;DHT22;8531;48.078;11.968;2023-11-19T14:17:02;13.10;99.90
16829;DHT22;8531;48.078;11.968;2023-11-19T14:19:30;13.10;99.90
16829;DHT22;8531;48.078;11.968;2023-11-19T14:21:56;13.10;99.90
16829;DHT22;8531;48.078;11.968;2023-11-19T14:24:21;13.10;99.90
16829;DHT22;8531;48.078;11.968;2023-11-19T14:26:47;13.10;99.90
16829;DHT22;8531;48.078;11.968;2023-11-19T14:29:15;13.10;99.90
16829;DHT22;8531;48.078;11.968;2023-11-19T14:31:41;13.10;99.90
16829;DHT22;8531;48.078;11.968;2023-11-19T14:34:06;13.10;99.90
16829;DHT22;8531;48.078;11.968;2023-11-19T14:36:32;13.10;99.90
16829;DHT22;8531;48.078;11.968;2023-11-19T14:38:58;13.10;99.90
16829;DHT22;8531;48.078;11.968;2023-11-19T14:41:24;13.10;99.90
16829;DHT22;8531;48.078;11.968;2023-11-19T14:43:50;13.10;99.90
16829;DHT22;8531;48.078;11.968;2023-11-19T14:46:16;13.10;99.90
16829;DHT22;8531;48.078;11.968;2023-11-19T14:48:41;13.10;99.90
16829;DHT22;8531;48.078;11.968;2023-11-19T14:51:07;13.10;99.90
16829;DHT22;8531;48.078;11.968;2023-11-19T14:53:34;13.00;99.90
16829;DHT22;8531;48.078;11.968;2023-11-19T14:56:00;13.00;99.90
16829;DHT22;8531;48.078;11.968;2023-11-19T14:58:26;13.10;99.90
16829;DHT22;8531;48.078;11.968;2023-11-19T15:00:52;13.00;99.90
16829;DHT22;8531;48.078;11.968;2023-11-19T15:03:18;13.00;99.90
16829;DHT22;8531;48.078;11.968;2023-11-19T15:05:47;13.00;99.90
16829;DHT22;8531;48.078;11.968;2023-11-19T15:08:13;12.90;99.90
16829;DHT22;8531;48.078;11.968;2023-11-19T15:10:44;12.90;99.90
16829;DHT22;8531;48.078;11.968;2023-11-19T15:13:10;12.90;99.90
16829;DHT22;8531;48.078;11.968;2023-11-19T15:15:36;12.90;99.90
16829;DHT22;8531;48.078;11.968;2023-11-19T15:18:04;12.80;99.90
16829;DHT22;8531;48.078;11.968;2023-11-19T15:20:30;12.80;99.90
16829;DHT22;8531;48.078;11.968;2023-11-19T15:22:57;12.70;99.90
16829;DHT22;8531;48.078;11.968;2023-11-19T15:25:23;12.70;99.90
16829;DHT22;8531;48.078;11.968;2023-11-19T15:27:49;12.60;99.90
16829;DHT22;8531;48.078;11.968;2023-11-19T15:30:15;12.60;99.90
16829;DHT22;8531;48.078;11.968;2023-11-19T15:32:42;12.50;99.90
16829;DHT22;8531;48.078;11.968;2023-11-19T15:35:09;12.50;99.90
16829;DHT22;8531;48.078;11.968;2023-11-19T15:37:38;12.40;99.90
16829;DHT22;8531;48.078;11.968;2023-11-19T15:40:09;12.40;99.90
16829;DHT22;8531;48.078;11.968;2023-11-19T15:42:38;12.40;99.90
16829;DHT22;8531;48.078;11.968;2023-11-19T15:45:05;12.30;99.90
16829;DHT22;8531;48.078;11.968;2023-11-19T15:47:33;12.30;99.90
16829;DHT22;8531;48.078;11.968;2023-11-19T15:50:01;12.20;99.90
16829;DHT22;8531;48.078;11.968;2023-11-19T15:52:26;12.20;99.90
16829;DHT22;8531;48.078;11.968;2023-11-19T15:54:53;12.10;99.90
16829;DHT22;8531;48.078;11.968;2023-11-19T15:57:18;12.10;99.90
16829;DHT22;8531;48.078;11.968;2023-11-19T15:59:44;12.00;99.90
16829;DHT22;8531;48.078;11.968;2023-11-19T16:02:10;12.00;99.90
16829;DHT22;8531;48.078;11.968;2023-11-19T16:04:35;12.00;99.90
16829;DHT22;8531;48.078;11.968;2023-11-19T16:07:01;12.00;99.90
16829;DHT22;8531;48.078;11.968;2023-11-19T16:09:27;11.90;99.90
16829;DHT22;8531;48.078;11.968;2023-11-19T16:11:53;11.90;99.90
16829;DHT22;8531;48.078;11.968;2023-11-19T16:14:20;11.90;99.90